sensor_id;sensor_type;location;lat;lon;timestamp;pressure;altitude;pressure_sealevel;temperature;humidity
65546;BME280;52177;55.968;37.498;2024-03-02T00:00:30;101020.03;;;2.26;75.32
65546;BME280;52177;55.968;37.498;2024-03-02T00:01:00;101028.75;;;2.26;75.27
65546;BME280;52177;55.968;37.498;2024-03-02T00:01:31;101025.28;;;2.26;75.28
65546;BME280;52177;55.968;37.498;2024-03-02T00:02:01;101021.72;;;2.27;75.38
65546;BME280;52177;55.968;37.498;2024-03-02T00:02:32;101016.44;;;2.27;75.23
65546;BME280;52177;55.968;37.498;2024-03-02T00:03:02;101021.72;;;2.27;75.24
65546;BME280;52177;55.968;37.498;2024-03-02T00:03:33;101025.28;;;2.26;75.15
65546;BME280;52177;55.968;37.498;2024-03-02T00:04:04;101022.75;;;2.24;75.32
65546;BME280;52177;55.968;37.498;2024-03-02T00:04:37;101018.44;;;2.23;75.12
65546;BME280;52177;55.968;37.498;2024-03-02T00:05:08;101021.16;;;2.22;75.22
65546;BME280;52177;55.968;37.498;2024-03-02T00:05:41;101019.53;;;2.19;75.27
65546;BME280;52177;55.968;37.498;2024-03-02T00:06:11;101024.03;;;2.17;75.26
65546;BME280;52177;55.968;37.498;2024-03-02T00:06:42;101026.69;;;2.17;75.45
65546;BME280;52177;55.968;37.498;2024-03-02T00:07:14;101024.88;;;2.18;75.51
65546;BME280;52177;55.968;37.498;2024-03-02T00:07:47;101020.38;;;2.20;75.58
65546;BME280;52177;55.968;37.498;2024-03-02T00:08:24;101022.16;;;2.19;75.50
65546;BME280;52177;55.968;37.498;2024-03-02T00:08:58;101019.53;;;2.19;75.44
65546;BME280;52177;55.968;37.498;2024-03-02T00:09:29;101024.88;;;2.18;75.51
65546;BME280;52177;55.968;37.498;2024-03-02T00:10:00;101019.72;;;2.16;75.46
65546;BME280;52177;55.968;37.498;2024-03-02T00:10:38;101024.03;;;2.17;75.48
65546;BME280;52177;55.968;37.498;2024-03-02T00:11:10;101017.00;;;2.18;75.71
65546;BME280;52177;55.968;37.498;2024-03-02T00:11:42;101023.13;;;2.18;75.66
65546;BME280;52177;55.968;37.498;2024-03-02T00:12:15;101017.88;;;2.18;75.65
65546;BME280;52177;55.968;37.498;2024-03-02T00:12:47;101019.63;;;2.18;75.70
65546;BME280;52177;55.968;37.498;2024-03-02T00:13:20;101017.88;;;2.18;75.66
65546;BME280;52177;55.968;37.498;2024-03-02T00:13:53;101022.25;;;2.18;75.67
65546;BME280;52177;55.968;37.498;2024-03-02T00:14:24;101024.88;;;2.18;75.75
65546;BME280;52177;55.968;37.498;2024-03-02T00:14:54;101019.63;;;2.18;75.83
65546;BME280;52177;55.968;37.498;2024-03-02T00:16:16;101019.72;;;2.16;75.72
65546;BME280;52177;55.968;37.498;2024-03-02T00:16:48;101023.19;;;2.17;75.67
65546;BME280;52177;55.968;37.498;2024-03-02T00:17:24;101019.72;;;2.16;75.80
65546;BME280;52177;55.968;37.498;2024-03-02T00:17:56;101015.38;;;2.15;75.67
65546;BME280;52177;55.968;37.498;2024-03-02T00:18:30;101013.72;;;2.14;75.85
65546;BME280;52177;55.968;37.498;2024-03-02T00:19:02;101013.63;;;2.16;75.83
65546;BME280;52177;55.968;37.498;2024-03-02T00:19:33;101018.91;;;2.16;75.83
65546;BME280;52177;55.968;37.498;2024-03-02T00:20:03;101009.28;;;2.15;75.75
65546;BME280;52177;55.968;37.498;2024-03-02T00:20:35;101013.72;;;2.14;75.78
65546;BME280;52177;55.968;37.498;2024-03-02T00:21:06;101014.66;;;2.13;75.78
65546;BME280;52177;55.968;37.498;2024-03-02T00:21:40;101007.75;;;2.10;75.80
65546;BME280;52177;55.968;37.498;2024-03-02T00:22:10;101005.13;;;2.10;75.87
65546;BME280;52177;55.968;37.498;2024-03-02T00:22:41;101013.91;;;2.11;75.89
65546;BME280;52177;55.968;37.498;2024-03-02T00:23:15;101014.75;;;2.11;75.85
65546;BME280;52177;55.968;37.498;2024-03-02T00:23:48;101016.53;;;2.11;75.94
65546;BME280;52177;55.968;37.498;2024-03-02T00:24:33;101010.41;;;2.10;75.94
65546;BME280;52177;55.968;37.498;2024-03-02T00:25:09;101012.09;;;2.11;75.79
65546;BME280;52177;55.968;37.498;2024-03-02T00:25:51;101006.00;;;2.11;75.90
65546;BME280;52177;55.968;37.498;2024-03-02T00:26:23;101007.69;;;2.12;75.99
65546;BME280;52177;55.968;37.498;2024-03-02T00:26:54;101012.03;;;2.13;75.93
65546;BME280;52177;55.968;37.498;2024-03-02T00:27:24;101009.41;;;2.13;75.93
65546;BME280;52177;55.968;37.498;2024-03-02T00:27:55;101008.53;;;2.13;75.76
65546;BME280;52177;55.968;37.498;2024-03-02T00:28:34;101006.78;;;2.13;75.78
65546;BME280;52177;55.968;37.498;2024-03-02T00:29:04;101015.50;;;2.14;75.77
65546;BME280;52177;55.968;37.498;2024-03-02T00:29:35;101008.53;;;2.13;75.85
65546;BME280;52177;55.968;37.498;2024-03-02T00:30:47;101011.28;;;2.11;75.77
65546;BME280;52177;55.968;37.498;2024-03-02T00:31:23;101013.13;;;2.09;75.86
65546;BME280;52177;55.968;37.498;2024-03-02T00:31:55;101010.41;;;2.10;75.91
65546;BME280;52177;55.968;37.498;2024-03-02T00:32:26;101009.66;;;2.08;75.97
65546;BME280;52177;55.968;37.498;2024-03-02T00:32:59;101012.19;;;2.10;75.95
65546;BME280;52177;55.968;37.498;2024-03-02T00:33:37;101011.28;;;2.11;75.99
65546;BME280;52177;55.968;37.498;2024-03-02T00:34:13;101011.34;;;2.09;75.82
65546;BME280;52177;55.968;37.498;2024-03-02T00:34:44;101011.34;;;2.09;75.99
65546;BME280;52177;55.968;37.498;2024-03-02T00:35:15;101018.41;;;2.09;75.75
65546;BME280;52177;55.968;37.498;2024-03-02T00:35:45;101015.84;;;2.07;75.76
65546;BME280;52177;55.968;37.498;2024-03-02T00:36:22;101014.16;;;2.06;75.79
65546;BME280;52177;55.968;37.498;2024-03-02T00:36:57;101010.59;;;2.07;75.96
65546;BME280;52177;55.968;37.498;2024-03-02T00:37:32;101013.28;;;2.06;76.13
65546;BME280;52177;55.968;37.498;2024-03-02T00:38:06;101012.47;;;2.05;75.86
65546;BME280;52177;55.968;37.498;2024-03-02T00:38:49;101014.31;;;2.03;75.92
65546;BME280;52177;55.968;37.498;2024-03-02T00:39:20;101009.06;;;2.03;76.01
65546;BME280;52177;55.968;37.498;2024-03-02T00:39:54;101016.03;;;2.04;76.00
65546;BME280;52177;55.968;37.498;2024-03-02T00:40:29;101001.19;;;2.03;76.08
65546;BME280;52177;55.968;37.498;2024-03-02T00:41:06;101001.19;;;2.03;75.98
65546;BME280;52177;55.968;37.498;2024-03-02T00:41:41;101014.25;;;2.05;76.13
65546;BME280;52177;55.968;37.498;2024-03-02T00:42:12;101005.41;;;2.06;76.08
65546;BME280;52177;55.968;37.498;2024-03-02T00:42:43;101009.75;;;2.07;76.07
65546;BME280;52177;55.968;37.498;2024-03-02T00:44:12;101005.31;;;2.07;76.20
65546;BME280;52177;55.968;37.498;2024-03-02T00:44:42;101015.94;;;2.06;76.03
65546;BME280;52177;55.968;37.498;2024-03-02T00:45:13;101013.28;;;2.06;75.93
65546;BME280;52177;55.968;37.498;2024-03-02T00:45:43;101015.00;;;2.07;76.02
65546;BME280;52177;55.968;37.498;2024-03-02T00:46:20;101015.09;;;2.05;76.00
65546;BME280;52177;55.968;37.498;2024-03-02T00:46:50;101011.63;;;2.05;76.07
65546;BME280;52177;55.968;37.498;2024-03-02T00:47:23;101014.16;;;2.06;75.92
65546;BME280;52177;55.968;37.498;2024-03-02T00:47:57;101013.28;;;2.06;75.93
65546;BME280;52177;55.968;37.498;2024-03-02T00:48:27;101016.78;;;2.06;76.01
65546;BME280;52177;55.968;37.498;2024-03-02T00:48:59;101011.63;;;2.05;75.96
65546;BME280;52177;55.968;37.498;2024-03-02T00:49:30;101013.28;;;2.06;76.06
65546;BME280;52177;55.968;37.498;2024-03-02T00:50:00;101010.66;;;2.06;76.09
65546;BME280;52177;55.968;37.498;2024-03-02T00:50:31;101015.09;;;2.05;76.06
65546;BME280;52177;55.968;37.498;2024-03-02T00:51:05;101008.97;;;2.05;75.89
65546;BME280;52177;55.968;37.498;2024-03-02T00:51:36;101015.09;;;2.05;76.00
65546;BME280;52177;55.968;37.498;2024-03-02T00:52:07;101016.88;;;2.05;76.00
65546;BME280;52177;55.968;37.498;2024-03-02T00:52:37;101018.56;;;2.06;75.96
65546;BME280;52177;55.968;37.498;2024-03-02T00:53:12;101023.94;;;2.04;75.94
65546;BME280;52177;55.968;37.498;2024-03-02T00:53:42;101016.13;;;2.03;75.89
65546;BME280;52177;55.968;37.498;2024-03-02T00:54:13;101018.81;;;2.01;75.92
65546;BME280;52177;55.968;37.498;2024-03-02T00:54:44;101022.31;;;2.02;76.09
65546;BME280;52177;55.968;37.498;2024-03-02T00:55:14;101017.06;;;2.02;76.17
65546;BME280;52177;55.968;37.498;2024-03-02T00:55:45;101016.19;;;2.01;76.01
65546;BME280;52177;55.968;37.498;2024-03-02T00:56:18;101023.16;;;2.02;76.12
65546;BME280;52177;55.968;37.498;2024-03-02T00:56:48;101015.28;;;2.02;76.11
65546;BME280;52177;55.968;37.498;2024-03-02T00:57:19;101019.69;;;2.02;76.23
65546;BME280;52177;55.968;37.498;2024-03-02T00:57:50;101017.91;;;2.02;76.21
65546;BME280;52177;55.968;37.498;2024-03-02T00:58:20;101012.66;;;2.02;76.26
65546;BME280;52177;55.968;37.498;2024-03-02T00:58:54;101014.31;;;2.03;76.29
65546;BME280;52177;55.968;37.498;2024-03-02T00:59:24;101024.69;;;2.06;76.36
65546;BME280;52177;55.968;37.498;2024-03-02T00:59:55;101020.47;;;2.04;76.29
65546;BME280;52177;55.968;37.498;2024-03-02T01:00:25;101021.28;;;2.04;76.35
65546;BME280;52177;55.968;37.498;2024-03-02T01:00:55;101023.81;;;2.06;76.38
65546;BME280;52177;55.968;37.498;2024-03-02T01:01:26;101022.97;;;2.05;76.37
65546;BME280;52177;55.968;37.498;2024-03-02T01:01:57;101020.34;;;2.05;76.37
65546;BME280;52177;55.968;37.498;2024-03-02T01:02:28;101025.53;;;2.07;76.31
65546;BME280;52177;55.968;37.498;2024-03-02T01:02:59;101029.84;;;2.08;76.14
65546;BME280;52177;55.968;37.498;2024-03-02T01:03:32;101024.56;;;2.08;76.18
65546;BME280;52177;55.968;37.498;2024-03-02T01:04:03;101021.09;;;2.07;76.15
65546;BME280;52177;55.968;37.498;2024-03-02T01:04:34;101022.81;;;2.08;76.18
65546;BME280;52177;55.968;37.498;2024-03-02T01:05:04;101024.50;;;2.09;76.15
65546;BME280;52177;55.968;37.498;2024-03-02T01:05:35;101021.88;;;2.09;76.29
65546;BME280;52177;55.968;37.498;2024-03-02T01:06:05;101028.91;;;2.09;76.21
65546;BME280;52177;55.968;37.498;2024-03-02T01:06:37;101026.19;;;2.10;76.16
65546;BME280;52177;55.968;37.498;2024-03-02T01:07:08;101028.81;;;2.10;76.14
65546;BME280;52177;55.968;37.498;2024-03-02T01:07:38;101029.69;;;2.11;76.29
65546;BME280;52177;55.968;37.498;2024-03-02T01:08:09;101025.25;;;2.11;75.97
65546;BME280;52177;55.968;37.498;2024-03-02T01:08:40;101030.72;;;2.08;76.04
65546;BME280;52177;55.968;37.498;2024-03-02T01:09:11;101033.34;;;2.08;76.06
65546;BME280;52177;55.968;37.498;2024-03-02T01:09:42;101035.97;;;2.08;76.12
65546;BME280;52177;55.968;37.498;2024-03-02T01:10:13;101034.25;;;2.07;75.86
65546;BME280;52177;55.968;37.498;2024-03-02T01:10:43;101039.53;;;2.07;75.82
65546;BME280;52177;55.968;37.498;2024-03-02T01:11:17;101031.81;;;2.04;75.96
65546;BME280;52177;55.968;37.498;2024-03-02T01:11:48;101032.66;;;2.05;75.92
65546;BME280;52177;55.968;37.498;2024-03-02T01:12:21;101036.31;;;2.02;76.07
65546;BME280;52177;55.968;37.498;2024-03-02T01:12:52;101035.47;;;2.02;75.93
65546;BME280;52177;55.968;37.498;2024-03-02T01:13:23;101035.56;;;2.00;76.08
65546;BME280;52177;55.968;37.498;2024-03-02T01:13:53;101031.25;;;1.99;76.12
65546;BME280;52177;55.968;37.498;2024-03-02T01:14:24;101033.88;;;1.99;76.23
65546;BME280;52177;55.968;37.498;2024-03-02T01:14:54;101035.56;;;2.00;76.30
65546;BME280;52177;55.968;37.498;2024-03-02T01:15:25;101034.59;;;2.01;76.22
65546;BME280;52177;55.968;37.498;2024-03-02T01:15:56;101036.31;;;2.02;76.11
65546;BME280;52177;55.968;37.498;2024-03-02T01:16:26;101032.84;;;2.02;76.18
65546;BME280;52177;55.968;37.498;2024-03-02T01:16:59;101038.09;;;2.02;76.20
65546;BME280;52177;55.968;37.498;2024-03-02T01:17:30;101039.78;;;2.03;76.36
65546;BME280;52177;55.968;37.498;2024-03-02T01:18:00;101037.06;;;2.04;76.24
65546;BME280;52177;55.968;37.498;2024-03-02T01:18:31;101036.13;;;2.05;76.35
65546;BME280;52177;55.968;37.498;2024-03-02T01:19:01;101038.69;;;2.07;76.16
65546;BME280;52177;55.968;37.498;2024-03-02T01:19:31;101035.97;;;2.08;76.31
65546;BME280;52177;55.968;37.498;2024-03-02T01:20:08;101033.22;;;2.10;76.06
65546;BME280;52177;55.968;37.498;2024-03-02T01:20:38;101035.03;;;2.09;76.06
65546;BME280;52177;55.968;37.498;2024-03-02T01:21:09;101037.56;;;2.11;76.18
65546;BME280;52177;55.968;37.498;2024-03-02T01:21:39;101034.84;;;2.13;76.06
65546;BME280;52177;55.968;37.498;2024-03-02T01:22:09;101036.53;;;2.14;76.03
65546;BME280;52177;55.968;37.498;2024-03-02T01:22:40;101036.53;;;2.14;76.02
65546;BME280;52177;55.968;37.498;2024-03-02T01:23:11;101037.38;;;2.14;75.84
65546;BME280;52177;55.968;37.498;2024-03-02T01:23:41;101031.16;;;2.15;75.80
65546;BME280;52177;55.968;37.498;2024-03-02T01:24:12;101039.94;;;2.16;75.92
65546;BME280;52177;55.968;37.498;2024-03-02T01:24:43;101037.31;;;2.16;75.78
65546;BME280;52177;55.968;37.498;2024-03-02T01:25:13;101037.31;;;2.16;75.79
65546;BME280;52177;55.968;37.498;2024-03-02T01:25:44;101039.06;;;2.15;75.78
65546;BME280;52177;55.968;37.498;2024-03-02T01:26:17;101041.81;;;2.14;75.79
65546;BME280;52177;55.968;37.498;2024-03-02T01:26:47;101042.66;;;2.14;75.73
65546;BME280;52177;55.968;37.498;2024-03-02T01:27:18;101045.28;;;2.14;75.66
65546;BME280;52177;55.968;37.498;2024-03-02T01:27:49;101042.66;;;2.14;75.73
65546;BME280;52177;55.968;37.498;2024-03-02T01:28:19;101039.19;;;2.14;75.73
65546;BME280;52177;55.968;37.498;2024-03-02T01:28:50;101046.22;;;2.13;75.69
65546;BME280;52177;55.968;37.498;2024-03-02T01:29:21;101046.22;;;2.13;75.71
65546;BME280;52177;55.968;37.498;2024-03-02T01:29:51;101041.81;;;2.14;75.59
65546;BME280;52177;55.968;37.498;2024-03-02T01:30:22;101049.78;;;2.12;75.69
65546;BME280;52177;55.968;37.498;2024-03-02T01:30:52;101041.97;;;2.10;75.70
65546;BME280;52177;55.968;37.498;2024-03-02T01:31:22;101041.97;;;2.10;75.79
65546;BME280;52177;55.968;37.498;2024-03-02T01:31:53;101038.50;;;2.10;75.91
65546;BME280;52177;55.968;37.498;2024-03-02T01:32:24;101040.19;;;2.11;75.84
65546;BME280;52177;55.968;37.498;2024-03-02T01:32:54;101039.25;;;2.12;75.78
65546;BME280;52177;55.968;37.498;2024-03-02T01:33:25;101040.09;;;2.13;75.83
65546;BME280;52177;55.968;37.498;2024-03-02T01:33:58;101045.34;;;2.13;75.80
65546;BME280;52177;55.968;37.498;2024-03-02T01:34:28;101040.97;;;2.13;75.81
65546;BME280;52177;55.968;37.498;2024-03-02T01:34:59;101038.34;;;2.13;75.98
65546;BME280;52177;55.968;37.498;2024-03-02T01:35:29;101038.22;;;2.15;75.89
65546;BME280;52177;55.968;37.498;2024-03-02T01:35:59;101037.38;;;2.14;75.76
65546;BME280;52177;55.968;37.498;2024-03-02T01:36:30;101034.84;;;2.13;75.65
65546;BME280;52177;55.968;37.498;2024-03-02T01:37:00;101036.63;;;2.12;75.81
65546;BME280;52177;55.968;37.498;2024-03-02T01:37:31;101027.13;;;2.09;75.66
65546;BME280;52177;55.968;37.498;2024-03-02T01:38:01;101032.38;;;2.09;75.65
65546;BME280;52177;55.968;37.498;2024-03-02T01:38:32;101036.81;;;2.09;75.72
65546;BME280;52177;55.968;37.498;2024-03-02T01:39:03;101030.72;;;2.08;75.73
65546;BME280;52177;55.968;37.498;2024-03-02T01:39:33;101031.63;;;2.07;75.76
65546;BME280;52177;55.968;37.498;2024-03-02T01:40:04;101031.63;;;2.07;75.78
65546;BME280;52177;55.968;37.498;2024-03-02T01:40:39;101034.25;;;2.07;75.72
65546;BME280;52177;55.968;37.498;2024-03-02T01:41:09;101028.91;;;2.09;75.89
65546;BME280;52177;55.968;37.498;2024-03-02T01:41:40;101028.09;;;2.08;75.86
65546;BME280;52177;55.968;37.498;2024-03-02T01:42:10;101029.75;;;2.09;75.80
65546;BME280;52177;55.968;37.498;2024-03-02T01:42:43;101028.09;;;2.08;75.81
65546;BME280;52177;55.968;37.498;2024-03-02T01:43:13;101026.28;;;2.09;75.88
65546;BME280;52177;55.968;37.498;2024-03-02T01:43:43;101029.69;;;2.11;75.89
65546;BME280;52177;55.968;37.498;2024-03-02T01:44:14;101028.81;;;2.10;75.90
65546;BME280;52177;55.968;37.498;2024-03-02T01:44:44;101027.81;;;2.13;75.98
65546;BME280;52177;55.968;37.498;2024-03-02T01:45:15;101032.19;;;2.13;76.01
65546;BME280;52177;55.968;37.498;2024-03-02T01:45:48;101027.69;;;2.15;75.89
65546;BME280;52177;55.968;37.498;2024-03-02T01:46:19;101034.69;;;2.16;75.84
65546;BME280;52177;55.968;37.498;2024-03-02T01:46:49;101031.09;;;2.17;75.83
65546;BME280;52177;55.968;37.498;2024-03-02T01:47:21;101032.03;;;2.16;75.73
65546;BME280;52177;55.968;37.498;2024-03-02T01:47:51;101021.53;;;2.16;75.83
65546;BME280;52177;55.968;37.498;2024-03-02T01:48:22;101028.47;;;2.17;75.78
65546;BME280;52177;55.968;37.498;2024-03-02T01:48:52;101029.31;;;2.17;75.89
65546;BME280;52177;55.968;37.498;2024-03-02T01:49:25;101025.84;;;2.17;75.89
65546;BME280;52177;55.968;37.498;2024-03-02T01:49:56;101025.84;;;2.17;75.78
65546;BME280;52177;55.968;37.498;2024-03-02T01:50:28;101031.00;;;2.18;75.82
65546;BME280;52177;55.968;37.498;2024-03-02T01:50:59;101034.50;;;2.19;75.70
65546;BME280;52177;55.968;37.498;2024-03-02T01:51:29;101029.22;;;2.19;75.72
65546;BME280;52177;55.968;37.498;2024-03-02T01:52:00;101032.69;;;2.19;75.68
65546;BME280;52177;55.968;37.498;2024-03-02T01:52:30;101029.16;;;2.20;75.69
65546;BME280;52177;55.968;37.498;2024-03-02T01:53:01;101027.34;;;2.21;75.67
65546;BME280;52177;55.968;37.498;2024-03-02T01:53:35;101028.19;;;2.21;75.63
65546;BME280;52177;55.968;37.498;2024-03-02T01:54:05;101026.41;;;2.22;75.65
65546;BME280;52177;55.968;37.498;2024-03-02T01:54:39;101027.25;;;2.22;75.65
65546;BME280;52177;55.968;37.498;2024-03-02T01:55:10;101028.13;;;2.23;75.63
65546;BME280;52177;55.968;37.498;2024-03-02T01:55:40;101023.69;;;2.23;75.65
65546;BME280;52177;55.968;37.498;2024-03-02T01:56:10;101023.69;;;2.23;75.61
65546;BME280;52177;55.968;37.498;2024-03-02T01:56:41;101028.88;;;2.25;75.65
65546;BME280;52177;55.968;37.498;2024-03-02T01:57:12;101027.16;;;2.24;75.57
65546;BME280;52177;55.968;37.498;2024-03-02T01:57:42;101027.16;;;2.24;75.64
65546;BME280;52177;55.968;37.498;2024-03-02T01:58:15;101025.47;;;2.23;75.39
65546;BME280;52177;55.968;37.498;2024-03-02T01:58:45;101028.13;;;2.23;75.57
65546;BME280;52177;55.968;37.498;2024-03-02T01:59:15;101038.53;;;2.24;75.49
65546;BME280;52177;55.968;37.498;2024-03-02T01:59:46;101025.56;;;2.21;75.47
65546;BME280;52177;55.968;37.498;2024-03-02T02:00:26;101025.56;;;2.21;75.50
65546;BME280;52177;55.968;37.498;2024-03-02T02:00:56;101033.47;;;2.21;75.62
65546;BME280;52177;55.968;37.498;2024-03-02T02:01:27;101029.03;;;2.22;75.65
65546;BME280;52177;55.968;37.498;2024-03-02T02:01:57;101034.28;;;2.22;75.67
65546;BME280;52177;55.968;37.498;2024-03-02T02:02:28;101023.78;;;2.22;75.68
65546;BME280;52177;55.968;37.498;2024-03-02T02:02:58;101031.66;;;2.22;75.86
65546;BME280;52177;55.968;37.498;2024-03-02T02:03:29;101023.69;;;2.23;75.78
65546;BME280;52177;55.968;37.498;2024-03-02T02:03:59;101031.59;;;2.23;75.72
65546;BME280;52177;55.968;37.498;2024-03-02T02:04:30;101030.75;;;2.23;75.72
65546;BME280;52177;55.968;37.498;2024-03-02T02:05:01;101027.25;;;2.22;75.76
65546;BME280;52177;55.968;37.498;2024-03-02T02:05:31;101030.75;;;2.23;75.67
65546;BME280;52177;55.968;37.498;2024-03-02T02:06:02;101022.94;;;2.21;75.75
65546;BME280;52177;55.968;37.498;2024-03-02T02:06:32;101029.88;;;2.22;75.64
65546;BME280;52177;55.968;37.498;2024-03-02T02:07:04;101029.88;;;2.22;75.64
65546;BME280;52177;55.968;37.498;2024-03-02T02:07:35;101028.19;;;2.21;75.63
65546;BME280;52177;55.968;37.498;2024-03-02T02:08:06;101028.28;;;2.20;75.45
65546;BME280;52177;55.968;37.498;2024-03-02T02:08:39;101027.34;;;2.21;75.68
65546;BME280;52177;55.968;37.498;2024-03-02T02:09:10;101023.97;;;2.19;75.63
65546;BME280;52177;55.968;37.498;2024-03-02T02:09:43;101028.38;;;2.18;75.49
65546;BME280;52177;55.968;37.498;2024-03-02T02:10:14;101024.88;;;2.18;75.61
65546;BME280;52177;55.968;37.498;2024-03-02T02:10:44;101028.38;;;2.18;75.47
65546;BME280;52177;55.968;37.498;2024-03-02T02:11:15;101025.75;;;2.18;75.61
65546;BME280;52177;55.968;37.498;2024-03-02T02:11:46;101022.25;;;2.18;75.59
65546;BME280;52177;55.968;37.498;2024-03-02T02:12:19;101025.75;;;2.18;75.60
65546;BME280;52177;55.968;37.498;2024-03-02T02:12:50;101024.88;;;2.18;75.50
65546;BME280;52177;55.968;37.498;2024-03-02T02:13:20;101031.00;;;2.18;75.51
65546;BME280;52177;55.968;37.498;2024-03-02T02:13:51;101032.78;;;2.18;75.62
65546;BME280;52177;55.968;37.498;2024-03-02T02:14:21;101025.75;;;2.18;75.68
65546;BME280;52177;55.968;37.498;2024-03-02T02:14:52;101034.50;;;2.19;75.48
65546;BME280;52177;55.968;37.498;2024-03-02T02:15:28;101029.22;;;2.19;75.62
65546;BME280;52177;55.968;37.498;2024-03-02T02:16:07;101029.22;;;2.19;75.51
65546;BME280;52177;55.968;37.498;2024-03-02T02:16:37;101031.94;;;2.17;75.45
65546;BME280;52177;55.968;37.498;2024-03-02T02:17:08;101030.25;;;2.16;75.54
65546;BME280;52177;55.968;37.498;2024-03-02T02:17:38;101035.50;;;2.16;75.53
65546;BME280;52177;55.968;37.498;2024-03-02T02:18:09;101032.03;;;2.16;75.35
65546;BME280;52177;55.968;37.498;2024-03-02T02:18:39;101035.50;;;2.16;75.55
65546;BME280;52177;55.968;37.498;2024-03-02T02:19:10;101036.34;;;2.17;75.42
65546;BME280;52177;55.968;37.498;2024-03-02T02:19:41;101037.19;;;2.17;nan
65546;BME280;52177;55.968;37.498;2024-03-02T02:20:11;101029.41;;;2.16;75.33
65546;BME280;52177;55.968;37.498;2024-03-02T02:20:42;101031.09;;;2.17;75.35
65546;BME280;52177;55.968;37.498;2024-03-02T02:21:12;101034.69;;;2.16;75.49
65546;BME280;52177;55.968;37.498;2024-03-02T02:21:43;101038.16;;;2.16;75.53
65546;BME280;52177;55.968;37.498;2024-03-02T02:22:13;101034.69;;;2.16;75.42
65546;BME280;52177;55.968;37.498;2024-03-02T02:23:01;101038.22;;;2.15;75.47
65546;BME280;52177;55.968;37.498;2024-03-02T02:23:32;101041.88;;;2.12;75.51
65546;BME280;52177;55.968;37.498;2024-03-02T02:24:03;101035.03;;;2.09;75.50
65546;BME280;52177;55.968;37.498;2024-03-02T02:24:34;101033.34;;;2.08;75.73
65546;BME280;52177;55.968;37.498;2024-03-02T02:25:04;101040.34;;;2.08;75.71
65546;BME280;52177;55.968;37.498;2024-03-02T02:25:35;101036.03;;;2.07;75.81
65546;BME280;52177;55.968;37.498;2024-03-02T02:26:08;101033.50;;;2.05;75.69
65546;BME280;52177;55.968;37.498;2024-03-02T02:26:39;101034.53;;;2.03;75.87
65546;BME280;52177;55.968;37.498;2024-03-02T02:27:09;101033.69;;;2.02;75.90
65546;BME280;52177;55.968;37.498;2024-03-02T02:27:40;101034.59;;;2.01;75.94
65546;BME280;52177;55.968;37.498;2024-03-02T02:28:10;101036.56;;;1.98;75.85
65546;BME280;52177;55.968;37.498;2024-03-02T02:28:41;101037.53;;;1.97;75.98
65546;BME280;52177;55.968;37.498;2024-03-02T02:29:19;101032.34;;;1.95;76.10
65546;BME280;52177;55.968;37.498;2024-03-02T02:29:53;101044.53;;;1.96;76.20
65546;BME280;52177;55.968;37.498;2024-03-02T02:30:26;101033.19;;;1.96;76.21
65546;BME280;52177;55.968;37.498;2024-03-02T02:30:56;101041.91;;;1.96;76.37
65546;BME280;52177;55.968;37.498;2024-03-02T02:31:27;101045.41;;;1.97;76.25
65546;BME280;52177;55.968;37.498;2024-03-02T02:31:58;101044.53;;;1.96;76.17
65546;BME280;52177;55.968;37.498;2024-03-02T02:32:28;101046.25;;;1.97;76.25
65546;BME280;52177;55.968;37.498;2024-03-02T02:33:02;101046.34;;;1.96;76.19
65546;BME280;52177;55.968;37.498;2024-03-02T02:33:33;101047.19;;;1.96;76.33
65546;BME280;52177;55.968;37.498;2024-03-02T02:34:03;101048.03;;;1.97;76.29
65546;BME280;52177;55.968;37.498;2024-03-02T02:34:33;101050.69;;;1.97;76.30
65546;BME280;52177;55.968;37.498;2024-03-02T02:35:04;101049.81;;;1.96;76.27
65546;BME280;52177;55.968;37.498;2024-03-02T02:35:38;101046.25;;;1.97;76.34
65546;BME280;52177;55.968;37.498;2024-03-02T02:36:09;101051.50;;;1.97;76.35
65546;BME280;52177;55.968;37.498;2024-03-02T02:36:40;101052.28;;;1.99;76.26
65546;BME280;52177;55.968;37.498;2024-03-02T02:37:14;101048.03;;;1.97;76.13
65546;BME280;52177;55.968;37.498;2024-03-02T02:37:48;101051.50;;;1.97;76.28
65546;BME280;52177;55.968;37.498;2024-03-02T02:38:19;101050.69;;;1.97;76.14
65546;BME280;52177;55.968;37.498;2024-03-02T02:38:50;101052.53;;;1.95;76.25
65546;BME280;52177;55.968;37.498;2024-03-02T02:39:21;101050.75;;;1.95;76.19
65546;BME280;52177;55.968;37.498;2024-03-02T02:39:55;101052.53;;;1.95;76.15
65546;BME280;52177;55.968;37.498;2024-03-02T02:40:25;101057.69;;;1.96;76.14
65546;BME280;52177;55.968;37.498;2024-03-02T02:40:56;101055.25;;;1.93;76.13
65546;BME280;52177;55.968;37.498;2024-03-02T02:41:26;101058.72;;;1.94;76.20
65546;BME280;52177;55.968;37.498;2024-03-02T02:41:56;101056.19;;;1.92;76.06
65546;BME280;52177;55.968;37.498;2024-03-02T02:42:27;101051.84;;;1.91;76.27
65546;BME280;52177;55.968;37.498;2024-03-02T02:42:58;101051.78;;;1.93;76.31
65546;BME280;52177;55.968;37.498;2024-03-02T02:43:31;101055.31;;;1.92;76.34
65546;BME280;52177;55.968;37.498;2024-03-02T02:44:01;101050.06;;;1.92;76.26
65546;BME280;52177;55.968;37.498;2024-03-02T02:44:32;101058.06;;;1.90;76.15
65546;BME280;52177;55.968;37.498;2024-03-02T02:45:02;101053.72;;;1.89;76.38
65546;BME280;52177;55.968;37.498;2024-03-02T02:45:33;101054.56;;;1.89;76.40
65546;BME280;52177;55.968;37.498;2024-03-02T02:46:04;101053.72;;;1.89;76.28
65546;BME280;52177;55.968;37.498;2024-03-02T02:46:34;101060.78;;;1.88;76.40
65546;BME280;52177;55.968;37.498;2024-03-02T02:47:05;101055.31;;;1.92;76.37
65546;BME280;52177;55.968;37.498;2024-03-02T02:47:35;101055.44;;;1.90;76.36
65546;BME280;52177;55.968;37.498;2024-03-02T02:48:06;101048.47;;;1.89;76.30